sensor_id;sensor_type;location;lat;lon;timestamp;temperature;humidity
67862;DHT22;54665;51.462;6.698;2023-05-10T00:00:40;14.84;89.10
67862;DHT22;54665;51.462;6.698;2023-05-10T00:03:06;14.73;88.31
67862;DHT22;54665;51.462;6.698;2023-05-10T00:05:31;14.57;88.91
67862;DHT22;54665;51.462;6.698;2023-05-10T00:07:57;14.62;89.07
67862;DHT22;54665;51.462;6.698;2023-05-10T00:10:22;14.55;89.04
67862;DHT22;54665;51.462;6.698;2023-05-10T00:12:48;14.55;89.00
67862;DHT22;54665;51.462;6.698;2023-05-10T00:15:13;14.23;89.47
67862;DHT22;54665;51.462;6.698;2023-05-10T00:17:39;14.32;88.80
67862;DHT22;54665;51.462;6.698;2023-05-10T00:20:05;14.26;89.66
67862;DHT22;54665;51.462;6.698;2023-05-10T00:22:31;14.39;88.86
67862;DHT22;54665;51.462;6.698;2023-05-10T00:24:57;14.15;88.75
67862;DHT22;54665;51.462;6.698;2023-05-10T00:27:22;14.08;89.48
67862;DHT22;54665;51.462;6.698;2023-05-10T00:29:48;14.11;89.57
67862;DHT22;54665;51.462;6.698;2023-05-10T00:32:13;14.01;89.65
67862;DHT22;54665;51.462;6.698;2023-05-10T00:34:39;14.29;89.11
67862;DHT22;54665;51.462;6.698;2023-05-10T00:37:04;14.12;89.45
67862;DHT22;54665;51.462;6.698;2023-05-10T00:39:32;14.34;88.84
67862;DHT22;54665;51.462;6.698;2023-05-10T00:41:57;14.49;88.31
67862;DHT22;54665;51.462;6.698;2023-05-10T00:44:22;14.53;88.34
67862;DHT22;54665;51.462;6.698;2023-05-10T00:46:49;14.59;88.25
67862;DHT22;54665;51.462;6.698;2023-05-10T00:49:15;14.53;88.31
67862;DHT22;54665;51.462;6.698;2023-05-10T00:51:40;14.52;88.42
67862;DHT22;54665;51.462;6.698;2023-05-10T00:54:09;14.43;88.27
67862;DHT22;54665;51.462;6.698;2023-05-10T00:56:35;14.53;88.28
67862;DHT22;54665;51.462;6.698;2023-05-10T00:59:01;14.50;88.51
67862;DHT22;54665;51.462;6.698;2023-05-10T01:01:27;14.52;88.36
67862;DHT22;54665;51.462;6.698;2023-05-10T01:03:54;14.44;88.69
67862;DHT22;54665;51.462;6.698;2023-05-10T01:06:20;14.42;88.47
67862;DHT22;54665;51.462;6.698;2023-05-10T01:08:46;14.43;88.28
67862;DHT22;54665;51.462;6.698;2023-05-10T01:11:12;14.40;88.52
67862;DHT22;54665;51.462;6.698;2023-05-10T01:13:40;14.37;88.59
67862;DHT22;54665;51.462;6.698;2023-05-10T01:16:08;14.23;88.80
67862;DHT22;54665;51.462;6.698;2023-05-10T01:18:38;14.47;88.26
67862;DHT22;54665;51.462;6.698;2023-05-10T01:29:25;14.16;88.41
67862;DHT22;54665;51.462;6.698;2023-05-10T01:32:19;14.12;88.73
67862;DHT22;54665;51.462;6.698;2023-05-10T01:37:37;14.06;88.54
67862;DHT22;54665;51.462;6.698;2023-05-10T01:42:47;14.30;88.11
67862;DHT22;54665;51.462;6.698;2023-05-10T01:45:36;14.29;88.03
67862;DHT22;54665;51.462;6.698;2023-05-10T01:48:08;14.30;87.95
67862;DHT22;54665;51.462;6.698;2023-05-10T01:50:36;14.33;87.71
67862;DHT22;54665;51.462;6.698;2023-05-10T01:53:06;14.23;88.20
67862;DHT22;54665;51.462;6.698;2023-05-10T01:55:35;14.29;88.15
67862;DHT22;54665;51.462;6.698;2023-05-10T01:58:07;14.28;88.13
67862;DHT22;54665;51.462;6.698;2023-05-10T02:00:34;14.23;88.29
67862;DHT22;54665;51.462;6.698;2023-05-10T02:03:06;14.33;88.03
67862;DHT22;54665;51.462;6.698;2023-05-10T02:05:32;14.39;87.90
67862;DHT22;54665;51.462;6.698;2023-05-10T02:08:01;14.39;87.90
67862;DHT22;54665;51.462;6.698;2023-05-10T02:10:28;14.42;87.70
67862;DHT22;54665;51.462;6.698;2023-05-10T02:12:54;14.44;87.70
67862;DHT22;54665;51.462;6.698;2023-05-10T02:15:23;14.42;87.80
67862;DHT22;54665;51.462;6.698;2023-05-10T02:17:49;14.43;87.63
67862;DHT22;54665;51.462;6.698;2023-05-10T02:20:16;14.40;87.53
67862;DHT22;54665;51.462;6.698;2023-05-10T02:22:44;14.34;87.90
67862;DHT22;54665;51.462;6.698;2023-05-10T02:25:11;14.25;87.83
67862;DHT22;54665;51.462;6.698;2023-05-10T02:27:38;14.22;88.18
67862;DHT22;54665;51.462;6.698;2023-05-10T02:30:07;14.25;88.16
67862;DHT22;54665;51.462;6.698;2023-05-10T02:32:33;14.36;88.00
67862;DHT22;54665;51.462;6.698;2023-05-10T02:35:01;14.40;87.93
67862;DHT22;54665;51.462;6.698;2023-05-10T02:37:27;14.43;88.15
67862;DHT22;54665;51.462;6.698;2023-05-10T02:39:54;14.42;88.00
67862;DHT22;54665;51.462;6.698;2023-05-10T02:42:23;14.37;88.05
67862;DHT22;54665;51.462;6.698;2023-05-10T02:44:51;14.25;88.37
67862;DHT22;54665;51.462;6.698;2023-05-10T02:47:18;14.30;88.42
67862;DHT22;54665;51.462;6.698;2023-05-10T02:49:44;14.30;88.36
67862;DHT22;54665;51.462;6.698;2023-05-10T02:52:09;14.37;88.54
67862;DHT22;54665;51.462;6.698;2023-05-10T02:54:42;14.34;88.65
67862;DHT22;54665;51.462;6.698;2023-05-10T02:57:11;14.40;88.30
67862;DHT22;54665;51.462;6.698;2023-05-10T02:59:38;14.30;88.66
67862;DHT22;54665;51.462;6.698;2023-05-10T03:02:04;14.40;88.32
67862;DHT22;54665;51.462;6.698;2023-05-10T03:04:29;14.44;88.23
67862;DHT22;54665;51.462;6.698;2023-05-10T03:06:56;14.40;88.15
67862;DHT22;54665;51.462;6.698;2023-05-10T03:09:22;14.40;88.13
67862;DHT22;54665;51.462;6.698;2023-05-10T03:20:10;14.47;88.19
67862;DHT22;54665;51.462;6.698;2023-05-10T03:22:40;14.52;88.11
67862;DHT22;54665;51.462;6.698;2023-05-10T03:25:10;14.59;88.02
67862;DHT22;54665;51.462;6.698;2023-05-10T03:27:39;14.63;87.91
67862;DHT22;54665;51.462;6.698;2023-05-10T03:30:08;14.46;88.53
67862;DHT22;54665;51.462;6.698;2023-05-10T03:32:35;14.40;88.32
67862;DHT22;54665;51.462;6.698;2023-05-10T03:35:12;14.46;88.50
67862;DHT22;54665;51.462;6.698;2023-05-10T03:37:38;14.56;88.06
67862;DHT22;54665;51.462;6.698;2023-05-10T03:40:05;14.47;88.42
67862;DHT22;54665;51.462;6.698;2023-05-10T03:42:33;14.50;88.18
67862;DHT22;54665;51.462;6.698;2023-05-10T03:44:58;14.52;88.30
67862;DHT22;54665;51.462;6.698;2023-05-10T03:47:24;14.52;88.36
67862;DHT22;54665;51.462;6.698;2023-05-10T03:49:49;14.50;88.34
67862;DHT22;54665;51.462;6.698;2023-05-10T03:52:14;14.49;88.09
67862;DHT22;54665;51.462;6.698;2023-05-10T03:54:40;14.44;88.22
67862;DHT22;54665;51.462;6.698;2023-05-10T03:57:06;14.30;88.67
67862;DHT22;54665;51.462;6.698;2023-05-10T03:59:31;14.47;88.46
67862;DHT22;54665;51.462;6.698;2023-05-10T04:01:57;14.46;88.79
67862;DHT22;54665;51.462;6.698;2023-05-10T04:04:22;14.37;88.86
67862;DHT22;54665;51.462;6.698;2023-05-10T04:06:49;14.43;88.55
67862;DHT22;54665;51.462;6.698;2023-05-10T04:09:15;14.43;88.31
67862;DHT22;54665;51.462;6.698;2023-05-10T04:11:41;14.60;88.37
67862;DHT22;54665;51.462;6.698;2023-05-10T04:14:06;14.44;88.50
67862;DHT22;54665;51.462;6.698;2023-05-10T04:16:32;14.63;88.23
67862;DHT22;54665;51.462;6.698;2023-05-10T04:18:58;14.70;88.00
67862;DHT22;54665;51.462;6.698;2023-05-10T04:21:23;14.52;88.28
67862;DHT22;54665;51.462;6.698;2023-05-10T04:23:48;14.69;88.28
67862;DHT22;54665;51.462;6.698;2023-05-10T04:26:14;14.72;88.14
67862;DHT22;54665;51.462;6.698;2023-05-10T04:28:39;14.69;88.25
67862;DHT22;54665;51.462;6.698;2023-05-10T04:31:06;14.63;88.24
67862;DHT22;54665;51.462;6.698;2023-05-10T04:33:32;14.47;88.65
67862;DHT22;54665;51.462;6.698;2023-05-10T04:35:57;14.73;88.20
67862;DHT22;54665;51.462;6.698;2023-05-10T04:38:23;14.74;87.93
67862;DHT22;54665;51.462;6.698;2023-05-10T04:40:48;14.76;88.27
67862;DHT22;54665;51.462;6.698;2023-05-10T04:43:14;14.66;88.14
67862;DHT22;54665;51.462;6.698;2023-05-10T04:45:39;14.70;88.08
67862;DHT22;54665;51.462;6.698;2023-05-10T04:48:05;14.70;88.50
67862;DHT22;54665;51.462;6.698;2023-05-10T04:50:30;14.90;88.13
67862;DHT22;54665;51.462;6.698;2023-05-10T04:52:56;14.90;87.62
67862;DHT22;54665;51.462;6.698;2023-05-10T04:55:22;14.84;88.00
67862;DHT22;54665;51.462;6.698;2023-05-10T04:57:47;14.79;87.86
67862;DHT22;54665;51.462;6.698;2023-05-10T05:00:13;14.87;87.79
67862;DHT22;54665;51.462;6.698;2023-05-10T05:02:42;14.62;88.31
67862;DHT22;54665;51.462;6.698;2023-05-10T05:05:07;14.66;88.50
67862;DHT22;54665;51.462;6.698;2023-05-10T05:07:33;14.85;88.08
67862;DHT22;54665;51.462;6.698;2023-05-10T05:09:58;14.84;87.92
67862;DHT22;54665;51.462;6.698;2023-05-10T05:12:23;14.84;88.21
67862;DHT22;54665;51.462;6.698;2023-05-10T05:14:49;14.90;88.02
67862;DHT22;54665;51.462;6.698;2023-05-10T05:17:14;14.80;88.11
67862;DHT22;54665;51.462;6.698;2023-05-10T05:19:40;14.91;87.50
67862;DHT22;54665;51.462;6.698;2023-05-10T05:22:06;14.95;87.69
67862;DHT22;54665;51.462;6.698;2023-05-10T05:24:36;14.95;87.86
67862;DHT22;54665;51.462;6.698;2023-05-10T05:27:04;14.94;87.68
67862;DHT22;54665;51.462;6.698;2023-05-10T05:29:29;15.03;87.41
67862;DHT22;54665;51.462;6.698;2023-05-10T05:31:55;15.03;87.38
67862;DHT22;54665;51.462;6.698;2023-05-10T05:34:20;15.14;86.94
67862;DHT22;54665;51.462;6.698;2023-05-10T05:36:47;15.15;86.84
67862;DHT22;54665;51.462;6.698;2023-05-10T05:39:12;15.14;86.79
67862;DHT22;54665;51.462;6.698;2023-05-10T05:41:38;15.24;86.80
67862;DHT22;54665;51.462;6.698;2023-05-10T05:44:03;15.07;86.64
67862;DHT22;54665;51.462;6.698;2023-05-10T05:46:29;15.17;86.12
67862;DHT22;54665;51.462;6.698;2023-05-10T05:48:55;15.08;86.32
67862;DHT22;54665;51.462;6.698;2023-05-10T05:51:20;15.20;86.33
67862;DHT22;54665;51.462;6.698;2023-05-10T05:53:46;15.15;86.14
67862;DHT22;54665;51.462;6.698;2023-05-10T05:56:11;15.04;86.83
67862;DHT22;54665;51.462;6.698;2023-05-10T05:58:37;15.00;86.98
67862;DHT22;54665;51.462;6.698;2023-05-10T06:01:02;14.90;86.75
67862;DHT22;54665;51.462;6.698;2023-05-10T06:03:27;15.04;86.90
67862;DHT22;54665;51.462;6.698;2023-05-10T06:05:53;15.10;86.41
67862;DHT22;54665;51.462;6.698;2023-05-10T06:08:18;15.17;86.45
67862;DHT22;54665;51.462;6.698;2023-05-10T06:10:43;15.14;86.66
67862;DHT22;54665;51.462;6.698;2023-05-10T06:13:10;15.11;86.29
67862;DHT22;54665;51.462;6.698;2023-05-10T06:15:35;15.05;86.05
67862;DHT22;54665;51.462;6.698;2023-05-10T06:18:01;15.14;86.22
67862;DHT22;54665;51.462;6.698;2023-05-10T06:20:26;15.17;86.29
67862;DHT22;54665;51.462;6.698;2023-05-10T06:22:52;15.03;86.46
67862;DHT22;54665;51.462;6.698;2023-05-10T06:25:17;15.14;86.19
67862;DHT22;54665;51.462;6.698;2023-05-10T06:27:43;15.11;86.40
67862;DHT22;54665;51.462;6.698;2023-05-10T06:30:09;15.34;86.34
67862;DHT22;54665;51.462;6.698;2023-05-10T06:32:35;15.25;86.16
67862;DHT22;54665;51.462;6.698;2023-05-10T06:35:00;15.21;86.21
67862;DHT22;54665;51.462;6.698;2023-05-10T06:37:26;15.35;86.02
67862;DHT22;54665;51.462;6.698;2023-05-10T06:39:51;15.56;85.76
67862;DHT22;54665;51.462;6.698;2023-05-10T06:42:17;15.62;85.69
67862;DHT22;54665;51.462;6.698;2023-05-10T06:44:45;15.61;85.17
67862;DHT22;54665;51.462;6.698;2023-05-10T06:47:10;15.42;85.32
67862;DHT22;54665;51.462;6.698;2023-05-10T06:49:36;15.61;85.62
67862;DHT22;54665;51.462;6.698;2023-05-10T06:52:02;15.59;85.43
67862;DHT22;54665;51.462;6.698;2023-05-10T06:54:27;15.61;85.17
67862;DHT22;54665;51.462;6.698;2023-05-10T06:56:52;15.49;85.15
67862;DHT22;54665;51.462;6.698;2023-05-10T06:59:18;15.34;86.01
67862;DHT22;54665;51.462;6.698;2023-05-10T07:01:44;15.41;85.67
67862;DHT22;54665;51.462;6.698;2023-05-10T07:04:10;15.36;85.17
67862;DHT22;54665;51.462;6.698;2023-05-10T07:06:35;15.23;85.75
67862;DHT22;54665;51.462;6.698;2023-05-10T07:09:01;15.41;85.85
67862;DHT22;54665;51.462;6.698;2023-05-10T07:11:26;15.62;85.73
67862;DHT22;54665;51.462;6.698;2023-05-10T07:13:52;15.45;85.16
67862;DHT22;54665;51.462;6.698;2023-05-10T07:16:17;15.58;85.54
67862;DHT22;54665;51.462;6.698;2023-05-10T07:18:43;15.72;85.76
67862;DHT22;54665;51.462;6.698;2023-05-10T07:21:08;15.73;85.90
67862;DHT22;54665;51.462;6.698;2023-05-10T07:23:34;15.79;85.56
67862;DHT22;54665;51.462;6.698;2023-05-10T07:25:59;15.63;85.09
67862;DHT22;54665;51.462;6.698;2023-05-10T07:28:25;15.83;85.24
67862;DHT22;54665;51.462;6.698;2023-05-10T07:30:51;16.24;85.01
67862;DHT22;54665;51.462;6.698;2023-05-10T07:33:16;16.26;84.09
67862;DHT22;54665;51.462;6.698;2023-05-10T07:35:42;15.92;84.10
67862;DHT22;54665;51.462;6.698;2023-05-10T07:38:08;16.14;84.32
67862;DHT22;54665;51.462;6.698;2023-05-10T07:40:33;16.03;82.66
67862;DHT22;54665;51.462;6.698;2023-05-10T07:42:59;16.13;83.43
67862;DHT22;54665;51.462;6.698;2023-05-10T07:45:26;16.46;83.38
67862;DHT22;54665;51.462;6.698;2023-05-10T07:47:52;16.64;82.85
67862;DHT22;54665;51.462;6.698;2023-05-10T07:50:17;17.04;81.93
67862;DHT22;54665;51.462;6.698;2023-05-10T07:52:43;17.20;81.13
67862;DHT22;54665;51.462;6.698;2023-05-10T07:55:08;17.37;79.38
67862;DHT22;54665;51.462;6.698;2023-05-10T07:57:34;17.26;79.74
67862;DHT22;54665;51.462;6.698;2023-05-10T08:00:00;17.46;79.49
67862;DHT22;54665;51.462;6.698;2023-05-10T08:02:25;17.06;80.31
67862;DHT22;54665;51.462;6.698;2023-05-10T08:04:51;16.71;80.04
67862;DHT22;54665;51.462;6.698;2023-05-10T08:07:17;16.50;80.03
67862;DHT22;54665;51.462;6.698;2023-05-10T08:09:42;16.95;80.80
67862;DHT22;54665;51.462;6.698;2023-05-10T08:12:08;17.12;79.99
67862;DHT22;54665;51.462;6.698;2023-05-10T08:14:33;17.25;79.20
67862;DHT22;54665;51.462;6.698;2023-05-10T08:16:59;17.23;78.83
67862;DHT22;54665;51.462;6.698;2023-05-10T08:19:24;17.33;78.52
67862;DHT22;54665;51.462;6.698;2023-05-10T08:21:49;16.98;78.77
67862;DHT22;54665;51.462;6.698;2023-05-10T08:24:15;17.39;79.68
67862;DHT22;54665;51.462;6.698;2023-05-10T08:26:40;18.90;76.91
67862;DHT22;54665;51.462;6.698;2023-05-10T08:29:06;19.31;70.78
67862;DHT22;54665;51.462;6.698;2023-05-10T08:31:31;19.41;72.71
67862;DHT22;54665;51.462;6.698;2023-05-10T08:33:56;18.92;74.06
67862;DHT22;54665;51.462;6.698;2023-05-10T08:36:22;18.82;74.69
67862;DHT22;54665;51.462;6.698;2023-05-10T08:38:53;17.98;74.92
67862;DHT22;54665;51.462;6.698;2023-05-10T08:41:23;17.59;74.46
67862;DHT22;54665;51.462;6.698;2023-05-10T08:43:53;17.57;75.20
67862;DHT22;54665;51.462;6.698;2023-05-10T08:46:20;17.53;75.28
67862;DHT22;54665;51.462;6.698;2023-05-10T08:48:47;17.60;74.77
67862;DHT22;54665;51.462;6.698;2023-05-10T08:51:24;17.80;74.36
67862;DHT22;54665;51.462;6.698;2023-05-10T08:53:52;17.97;74.87
67862;DHT22;54665;51.462;6.698;2023-05-10T08:56:18;18.31;74.53
67862;DHT22;54665;51.462;6.698;2023-05-10T08:58:43;18.89;74.24
67862;DHT22;54665;51.462;6.698;2023-05-10T09:01:09;19.20;70.56
67862;DHT22;54665;51.462;6.698;2023-05-10T09:03:38;18.96;70.67
67862;DHT22;54665;51.462;6.698;2023-05-10T09:06:04;18.55;72.47
67862;DHT22;54665;51.462;6.698;2023-05-10T09:08:30;18.48;71.46
67862;DHT22;54665;51.462;6.698;2023-05-10T09:10:56;18.19;71.10
67862;DHT22;54665;51.462;6.698;2023-05-10T09:13:23;18.32;70.91
67862;DHT22;54665;51.462;6.698;2023-05-10T09:15:48;18.18;71.27
67862;DHT22;54665;51.462;6.698;2023-05-10T09:18:14;18.65;71.22
67862;DHT22;54665;51.462;6.698;2023-05-10T09:20:40;18.35;70.71
67862;DHT22;54665;51.462;6.698;2023-05-10T09:23:06;18.14;71.26
67862;DHT22;54665;51.462;6.698;2023-05-10T09:25:31;18.21;71.91
67862;DHT22;54665;51.462;6.698;2023-05-10T09:28:00;18.72;69.08
67862;DHT22;54665;51.462;6.698;2023-05-10T09:30:30;18.69;70.34
67862;DHT22;54665;51.462;6.698;2023-05-10T09:32:57;18.95;70.66
67862;DHT22;54665;51.462;6.698;2023-05-10T09:35:24;18.98;69.74
67862;DHT22;54665;51.462;6.698;2023-05-10T09:37:51;18.28;70.10
67862;DHT22;54665;51.462;6.698;2023-05-10T09:40:19;17.69;71.67
67862;DHT22;54665;51.462;6.698;2023-05-10T09:45:24;16.68;76.12
67862;DHT22;54665;51.462;6.698;2023-05-10T09:47:49;16.87;76.22
67862;DHT22;54665;51.462;6.698;2023-05-10T09:50:15;16.75;75.78
67862;DHT22;54665;51.462;6.698;2023-05-10T09:52:57;16.27;76.55
67862;DHT22;54665;51.462;6.698;2023-05-10T09:55:25;16.40;76.51
67862;DHT22;54665;51.462;6.698;2023-05-10T09:57:59;16.38;76.13
67862;DHT22;54665;51.462;6.698;2023-05-10T10:00:25;16.63;75.94
67862;DHT22;54665;51.462;6.698;2023-05-10T10:02:56;16.92;75.40
67862;DHT22;54665;51.462;6.698;2023-05-10T10:05:31;17.01;74.18
67862;DHT22;54665;51.462;6.698;2023-05-10T10:07:58;16.94;74.29
67862;DHT22;54665;51.462;6.698;2023-05-10T10:10:27;16.96;74.65
67862;DHT22;54665;51.462;6.698;2023-05-10T10:12:53;17.05;74.12
67862;DHT22;54665;51.462;6.698;2023-05-10T10:15:20;17.01;75.05
67862;DHT22;54665;51.462;6.698;2023-05-10T10:17:46;17.05;75.27
67862;DHT22;54665;51.462;6.698;2023-05-10T10:20:12;17.25;74.51
67862;DHT22;54665;51.462;6.698;2023-05-10T10:22:37;17.20;74.42
67862;DHT22;54665;51.462;6.698;2023-05-10T10:25:04;16.99;75.13
67862;DHT22;54665;51.462;6.698;2023-05-10T10:30:25;17.69;74.44
67862;DHT22;54665;51.462;6.698;2023-05-10T10:35:45;17.70;73.41
67862;DHT22;54665;51.462;6.698;2023-05-10T10:38:12;18.00;74.10
67862;DHT22;54665;51.462;6.698;2023-05-10T10:40:38;17.60;74.16
67862;DHT22;54665;51.462;6.698;2023-05-10T10:43:24;17.20;74.64
67862;DHT22;54665;51.462;6.698;2023-05-10T10:46:16;17.15;74.96
67862;DHT22;54665;51.462;6.698;2023-05-10T10:48:50;17.16;74.84
67862;DHT22;54665;51.462;6.698;2023-05-10T10:51:16;17.30;74.24
67862;DHT22;54665;51.462;6.698;2023-05-10T10:53:42;17.37;74.42
67862;DHT22;54665;51.462;6.698;2023-05-10T10:56:10;16.78;75.53
67862;DHT22;54665;51.462;6.698;2023-05-10T10:58:37;17.56;74.09
67862;DHT22;54665;51.462;6.698;2023-05-10T11:01:14;17.77;73.12
67862;DHT22;54665;51.462;6.698;2023-05-10T11:03:41;18.63;72.10
67862;DHT22;54665;51.462;6.698;2023-05-10T11:06:32;18.73;69.02
67862;DHT22;54665;51.462;6.698;2023-05-10T11:08:59;19.23;69.81
67862;DHT22;54665;51.462;6.698;2023-05-10T11:11:30;19.09;69.44
67862;DHT22;54665;51.462;6.698;2023-05-10T11:14:03;19.03;68.60
67862;DHT22;54665;51.462;6.698;2023-05-10T11:16:40;19.04;68.33
67862;DHT22;54665;51.462;6.698;2023-05-10T11:19:07;19.30;68.07
67862;DHT22;54665;51.462;6.698;2023-05-10T11:22:29;18.53;70.14
67862;DHT22;54665;51.462;6.698;2023-05-10T11:24:29;18.92;69.26
67862;DHT22;54665;51.462;6.698;2023-05-10T11:26:55;18.25;70.00
67862;DHT22;54665;51.462;6.698;2023-05-10T11:29:21;18.60;69.24
67862;DHT22;54665;51.462;6.698;2023-05-10T11:31:47;18.45;70.21
67862;DHT22;54665;51.462;6.698;2023-05-10T11:34:29;18.63;68.95
67862;DHT22;54665;51.462;6.698;2023-05-10T11:36:56;18.51;69.50
67862;DHT22;54665;51.462;6.698;2023-05-10T11:39:26;18.21;72.16
67862;DHT22;54665;51.462;6.698;2023-05-10T11:41:51;17.71;72.69
67862;DHT22;54665;51.462;6.698;2023-05-10T11:44:17;17.71;70.91
67862;DHT22;54665;51.462;6.698;2023-05-10T11:46:42;18.07;71.52
67862;DHT22;54665;51.462;6.698;2023-05-10T11:49:08;18.07;71.19
67862;DHT22;54665;51.462;6.698;2023-05-10T11:51:34;18.04;69.32
67862;DHT22;54665;51.462;6.698;2023-05-10T11:54:05;18.19;71.37
67862;DHT22;54665;51.462;6.698;2023-05-10T11:56:32;18.24;70.62
67862;DHT22;54665;51.462;6.698;2023-05-10T11:58:57;18.14;71.62
67862;DHT22;54665;51.462;6.698;2023-05-10T12:01:24;18.07;69.92
67862;DHT22;54665;51.462;6.698;2023-05-10T12:03:51;18.48;69.08
67862;DHT22;54665;51.462;6.698;2023-05-10T12:06:18;18.27;70.16
67862;DHT22;54665;51.462;6.698;2023-05-10T12:08:46;18.85;68.33
67862;DHT22;54665;51.462;6.698;2023-05-10T12:11:12;18.76;67.27
67862;DHT22;54665;51.462;6.698;2023-05-10T12:13:39;18.58;68.74
67862;DHT22;54665;51.462;6.698;2023-05-10T12:16:34;18.70;68.09
67862;DHT22;54665;51.462;6.698;2023-05-10T12:19:00;18.73;66.61
67862;DHT22;54665;51.462;6.698;2023-05-10T12:21:27;19.24;67.25
67862;DHT22;54665;51.462;6.698;2023-05-10T12:23:54;19.83;64.99
67862;DHT22;54665;51.462;6.698;2023-05-10T12:26:24;19.62;62.46
67862;DHT22;54665;51.462;6.698;2023-05-10T12:28:52;19.98;64.38
67862;DHT22;54665;51.462;6.698;2023-05-10T12:31:17;20.16;63.84
67862;DHT22;54665;51.462;6.698;2023-05-10T12:33:44;20.76;62.70
67862;DHT22;54665;51.462;6.698;2023-05-10T12:36:11;21.35;60.62
67862;DHT22;54665;51.462;6.698;2023-05-10T12:38:38;22.18;62.98
67862;DHT22;54665;51.462;6.698;2023-05-10T12:41:12;22.23;56.70
67862;DHT22;54665;51.462;6.698;2023-05-10T12:43:38;21.99;59.33
67862;DHT22;54665;51.462;6.698;2023-05-10T12:46:10;21.73;57.84
67862;DHT22;54665;51.462;6.698;2023-05-10T12:48:37;21.18;58.61
67862;DHT22;54665;51.462;6.698;2023-05-10T12:51:03;21.15;58.05
67862;DHT22;54665;51.462;6.698;2023-05-10T12:53:28;21.72;58.66
67862;DHT22;54665;51.462;6.698;2023-05-10T12:55:54;21.76;59.22
67862;DHT22;54665;51.462;6.698;2023-05-10T12:58:20;22.02;58.57
67862;DHT22;54665;51.462;6.698;2023-05-10T13:00:45;22.64;55.26
67862;DHT22;54665;51.462;6.698;2023-05-10T13:03:11;22.34;57.09
67862;DHT22;54665;51.462;6.698;2023-05-10T13:05:36;22.33;58.34
67862;DHT22;54665;51.462;6.698;2023-05-10T13:08:02;22.37;56.21
67862;DHT22;54665;51.462;6.698;2023-05-10T13:10:29;21.56;58.32
67862;DHT22;54665;51.462;6.698;2023-05-10T13:12:54;20.90;58.61
67862;DHT22;54665;51.462;6.698;2023-05-10T13:15:20;20.70;59.52
67862;DHT22;54665;51.462;6.698;2023-05-10T13:17:46;21.04;60.23
67862;DHT22;54665;51.462;6.698;2023-05-10T13:20:11;21.31;60.77
67862;DHT22;54665;51.462;6.698;2023-05-10T13:22:36;21.31;57.81
67862;DHT22;54665;51.462;6.698;2023-05-10T13:25:02;21.55;58.79
67862;DHT22;54665;51.462;6.698;2023-05-10T13:27:28;21.78;56.83
67862;DHT22;54665;51.462;6.698;2023-05-10T13:29:54;22.32;55.57
67862;DHT22;54665;51.462;6.698;2023-05-10T13:32:20;22.33;57.89
67862;DHT22;54665;51.462;6.698;2023-05-10T13:34:46;22.18;57.03
67862;DHT22;54665;51.462;6.698;2023-05-10T13:37:11;21.90;56.15
67862;DHT22;54665;51.462;6.698;2023-05-10T13:39:36;21.93;55.52
67862;DHT22;54665;51.462;6.698;2023-05-10T13:42:03;21.89;57.89
67862;DHT22;54665;51.462;6.698;2023-05-10T13:44:29;21.58;58.59
67862;DHT22;54665;51.462;6.698;2023-05-10T13:46:54;21.00;59.08
67862;DHT22;54665;51.462;6.698;2023-05-10T13:49:20;21.04;61.25
67862;DHT22;54665;51.462;6.698;2023-05-10T13:51:46;20.83;59.23
67862;DHT22;54665;51.462;6.698;2023-05-10T13:54:12;20.91;61.96
67862;DHT22;54665;51.462;6.698;2023-05-10T13:56:37;20.49;61.76
67862;DHT22;54665;51.462;6.698;2023-05-10T13:59:02;21.66;60.42
67862;DHT22;54665;51.462;6.698;2023-05-10T14:01:28;23.26;58.05
67862;DHT22;54665;51.462;6.698;2023-05-10T14:03:53;23.67;53.08
67862;DHT22;54665;51.462;6.698;2023-05-10T14:06:19;23.96;53.71
67862;DHT22;54665;51.462;6.698;2023-05-10T14:08:44;23.19;53.06
67862;DHT22;54665;51.462;6.698;2023-05-10T14:11:10;22.95;53.78
67862;DHT22;54665;51.462;6.698;2023-05-10T14:13:36;23.98;53.35
67862;DHT22;54665;51.462;6.698;2023-05-10T14:16:02;24.08;51.69
67862;DHT22;54665;51.462;6.698;2023-05-10T14:18:27;24.49;48.65
67862;DHT22;54665;51.462;6.698;2023-05-10T14:20:53;24.49;51.44
67862;DHT22;54665;51.462;6.698;2023-05-10T14:23:19;25.15;50.67
67862;DHT22;54665;51.462;6.698;2023-05-10T14:25:50;25.13;51.04
67862;DHT22;54665;51.462;6.698;2023-05-10T14:28:16;24.71;51.03
67862;DHT22;54665;51.462;6.698;2023-05-10T14:30:42;23.45;50.26
67862;DHT22;54665;51.462;6.698;2023-05-10T14:33:08;22.50;54.97
67862;DHT22;54665;51.462;6.698;2023-05-10T14:35:34;22.76;54.61
67862;DHT22;54665;51.462;6.698;2023-05-10T14:37:59;22.91;54.47
67862;DHT22;54665;51.462;6.698;2023-05-10T14:40:25;22.04;56.65
67862;DHT22;54665;51.462;6.698;2023-05-10T14:42:51;21.61;57.67
67862;DHT22;54665;51.462;6.698;2023-05-10T14:45:18;22.00;57.98
67862;DHT22;54665;51.462;6.698;2023-05-10T14:47:43;21.37;58.36
67862;DHT22;54665;51.462;6.698;2023-05-10T14:50:09;21.45;59.66
67862;DHT22;54665;51.462;6.698;2023-05-10T14:52:34;21.48;61.74
67862;DHT22;54665;51.462;6.698;2023-05-10T14:55:00;21.32;59.82
67862;DHT22;54665;51.462;6.698;2023-05-10T14:57:26;21.25;59.44
67862;DHT22;54665;51.462;6.698;2023-05-10T14:59:54;21.00;60.56
67862;DHT22;54665;51.462;6.698;2023-05-10T15:02:20;21.12;61.42
67862;DHT22;54665;51.462;6.698;2023-05-10T15:04:45;21.31;61.03
67862;DHT22;54665;51.462;6.698;2023-05-10T15:07:11;20.74;58.69
67862;DHT22;54665;51.462;6.698;2023-05-10T15:09:39;20.54;61.13
67862;DHT22;54665;51.462;6.698;2023-05-10T15:12:04;19.41;60.60
67862;DHT22;54665;51.462;6.698;2023-05-10T15:14:30;19.55;62.83
67862;DHT22;54665;51.462;6.698;2023-05-10T15:16:55;19.13;61.75
67862;DHT22;54665;51.462;6.698;2023-05-10T15:19:21;18.42;63.20
67862;DHT22;54665;51.462;6.698;2023-05-10T15:21:46;18.17;64.33
67862;DHT22;54665;51.462;6.698;2023-05-10T15:24:12;18.22;64.00
67862;DHT22;54665;51.462;6.698;2023-05-10T15:26:37;17.96;65.08
67862;DHT22;54665;51.462;6.698;2023-05-10T15:29:03;17.83;66.50
67862;DHT22;54665;51.462;6.698;2023-05-10T15:31:28;17.29;68.72
67862;DHT22;54665;51.462;6.698;2023-05-10T15:33:57;16.78;70.78
67862;DHT22;54665;51.462;6.698;2023-05-10T15:36:24;16.81;71.98
67862;DHT22;54665;51.462;6.698;2023-05-10T15:38:49;16.46;73.09
67862;DHT22;54665;51.462;6.698;2023-05-10T15:41:15;16.47;73.60
67862;DHT22;54665;51.462;6.698;2023-05-10T15:43:40;16.61;74.40
67862;DHT22;54665;51.462;6.698;2023-05-10T15:46:06;16.24;75.59
67862;DHT22;54665;51.462;6.698;2023-05-10T15:48:32;15.39;79.28
67862;DHT22;54665;51.462;6.698;2023-05-10T15:50:58;15.32;81.70
67862;DHT22;54665;51.462;6.698;2023-05-10T15:53:23;15.01;83.30
67862;DHT22;54665;51.462;6.698;2023-05-10T15:55:48;14.85;84.29
67862;DHT22;54665;51.462;6.698;2023-05-10T15:58:14;14.79;85.10